Lynnfield, Massachusetts
Current Conditions -  °F | °C
As of 4:53 AM on Thursday 23 Oct 2014 (Local Time) from KBVY Reporting Station
Light Rain Light Rain  
Wind Chill: 51°   Ceiling: 700
Heat Index: 51°   Visibility: 2.5mi
Dew Point: 49°   Wind: 16mph
Humidity: 92%   Direction: 20°NNE
Pressure: 29.7"   Gusts: 35mph
Location:  42.54°N, 71.05°W
Report Text: KBVY 230853Z AUTO 02014G30KT 2 1/2SM -RA BR OVC007 11/09 A2970 RMK AO2 PK WND 03036/0819 SLP052 P0023 60139 T01060094 58010
Loading
Personal Weather Stations






























Interactive Weather Map
Tropical Storm Tracking
New forecast layout! Learn more

10-Day Weather Forecast

Advertisements
Track Severe Weather on mobile